createdAt,value
2019-04-04T00:01:29.810Z,21.75
2019-04-04T00:03:56.890Z,19.85
2019-04-04T00:06:25.074Z,18.90
2019-04-04T00:08:52.919Z,17.23
2019-04-04T00:11:20.011Z,16.65
2019-04-04T00:13:48.174Z,14.85
2019-04-04T00:16:16.577Z,15.58
2019-04-04T00:18:44.991Z,14.25
2019-04-04T00:21:12.359Z,14.73
2019-04-04T00:23:39.849Z,13.85
2019-04-04T00:26:08.831Z,15.30
2019-04-04T00:28:36.109Z,13.95
2019-04-04T00:31:03.510Z,14.53
2019-04-04T00:33:30.451Z,12.20
2019-04-04T00:35:57.646Z,13.15
2019-04-04T00:38:24.611Z,12.07
2019-04-04T00:40:51.594Z,11.93
2019-04-04T00:43:20.736Z,12.00
2019-04-04T00:45:47.483Z,11.90
2019-04-04T00:48:14.771Z,12.95
2019-04-04T00:50:42.122Z,12.68
2019-04-04T00:53:11.808Z,12.20
2019-04-04T00:55:39.324Z,12.18
2019-04-04T00:58:06.410Z,12.13
2019-04-04T01:00:33.947Z,12.47
2019-04-04T01:03:01.399Z,10.93
2019-04-04T01:05:28.386Z,12.23
2019-04-04T01:07:55.555Z,10.40
2019-04-04T01:10:22.948Z,10.85
2019-04-04T01:12:52.207Z,11.05
2019-04-04T01:15:19.579Z,10.45
2019-04-04T01:17:46.727Z,10.30
2019-04-04T01:20:14.348Z,9.13
2019-04-04T01:22:41.535Z,9.85
2019-04-04T01:25:08.795Z,9.58
2019-04-04T01:27:37.654Z,8.98
2019-04-04T01:30:05.963Z,8.88
2019-04-04T01:32:33.728Z,8.93
2019-04-04T01:35:00.703Z,8.88
2019-04-04T01:37:27.879Z,9.85
2019-04-04T01:39:55.074Z,8.98
2019-04-04T01:42:22.086Z,9.00
2019-04-04T01:44:49.487Z,9.40
2019-04-04T01:47:16.957Z,8.60
2019-04-04T01:49:44.726Z,9.25
2019-04-04T01:52:11.802Z,8.93
2019-04-04T01:54:39.069Z,8.65
2019-04-04T01:57:08.209Z,9.23
2019-04-04T01:59:35.431Z,8.90
2019-04-04T02:02:02.701Z,8.93
2019-04-04T02:04:30.093Z,9.13
2019-04-04T02:06:59.146Z,9.03
2019-04-04T02:09:27.766Z,9.95
2019-04-04T02:11:54.978Z,9.30
2019-04-04T02:14:22.054Z,9.58
2019-04-04T02:16:51.505Z,10.30
2019-04-04T02:19:18.271Z,8.88
2019-04-04T02:21:45.402Z,10.55
2019-04-04T02:24:12.430Z,10.28
2019-04-04T02:26:39.423Z,9.88
2019-04-04T02:29:06.814Z,10.60
2019-04-04T02:31:38.003Z,10.40
2019-04-04T02:34:06.352Z,10.48
2019-04-04T02:36:33.684Z,10.18
2019-04-04T02:39:04.866Z,10.18
2019-04-04T02:41:32.338Z,9.78
2019-04-04T02:44:00.639Z,10.43
2019-04-04T02:46:27.847Z,10.08
2019-04-04T02:48:56.283Z,10.90
2019-04-04T02:51:23.744Z,10.30
2019-04-04T02:53:52.963Z,11.35
2019-04-04T02:56:20.111Z,10.45
2019-04-04T02:58:47.329Z,10.68
2019-04-04T03:01:14.620Z,10.08
2019-04-04T03:03:42.273Z,11.00
2019-04-04T03:06:09.784Z,11.45
2019-04-04T03:08:37.855Z,11.03
2019-04-04T03:11:05.147Z,10.75
2019-04-04T03:13:32.517Z,10.03
2019-04-04T03:15:59.727Z,10.63
2019-04-04T03:18:26.941Z,11.70
2019-04-04T03:20:54.574Z,10.45
2019-04-04T03:23:21.887Z,11.73
2019-04-04T03:25:49.521Z,11.73
2019-04-04T03:28:16.635Z,12.15
2019-04-04T03:30:51.777Z,11.63
2019-04-04T03:33:12.995Z,11.83
2019-04-04T03:35:39.974Z,12.15
2019-04-04T03:38:07.380Z,12.85
2019-04-04T03:40:35.609Z,12.43
2019-04-04T03:43:02.588Z,13.18
2019-04-04T03:45:30.046Z,13.05
2019-04-04T03:47:57.118Z,13.03
2019-04-04T03:50:29.160Z,13.85
2019-04-04T03:52:53.989Z,14.47
2019-04-04T03:55:20.970Z,12.90
2019-04-04T03:57:47.971Z,13.55
2019-04-04T04:00:28.576Z,14.03
2019-04-04T04:02:55.648Z,13.45
2019-04-04T04:05:25.776Z,13.05
2019-04-04T04:07:52.951Z,13.35
2019-04-04T04:10:20.401Z,15.35
2019-04-04T04:12:47.491Z,13.98
2019-04-04T04:15:14.924Z,12.53
2019-04-04T04:17:45.013Z,12.68
2019-04-04T04:20:11.547Z,13.05
2019-04-04T04:22:38.652Z,11.28
2019-04-04T04:25:05.967Z,12.80
2019-04-04T04:27:33.509Z,11.78
2019-04-04T04:30:06.111Z,11.08
2019-04-04T04:32:29.663Z,11.48
2019-04-04T04:34:57.130Z,11.70
2019-04-04T04:37:24.153Z,11.73
2019-04-04T04:39:51.232Z,11.12
2019-04-04T04:42:21.132Z,13.10
2019-04-04T04:44:47.408Z,13.28
2019-04-04T04:47:14.526Z,13.68
2019-04-04T04:49:41.811Z,14.25
2019-04-04T04:52:09.091Z,12.73
2019-04-04T04:54:38.174Z,13.80
2019-04-04T04:57:05.887Z,13.18
2019-04-04T04:59:33.343Z,14.43
2019-04-04T05:02:00.761Z,14.53
2019-04-04T05:04:28.832Z,15.93
2019-04-04T05:06:55.918Z,13.85
2019-04-04T05:09:22.978Z,15.75
2019-04-04T05:11:50.222Z,16.40
2019-04-04T05:14:17.979Z,16.20
2019-04-04T05:16:45.274Z,16.85
2019-04-04T05:19:12.341Z,18.00
2019-04-04T05:21:39.371Z,17.48
2019-04-04T05:24:06.811Z,16.75
2019-04-04T05:26:34.476Z,18.87
2019-04-04T05:29:02.471Z,16.67
2019-04-04T05:31:29.420Z,18.05
2019-04-04T05:33:58.770Z,16.97
2019-04-04T05:36:26.765Z,17.87
2019-04-04T05:38:53.950Z,17.30
2019-04-04T05:41:20.965Z,16.97
2019-04-04T05:43:48.267Z,16.82
2019-04-04T05:46:16.799Z,17.62
2019-04-04T05:48:44.751Z,17.10
2019-04-04T05:51:14.944Z,17.90
2019-04-04T05:53:42.053Z,17.75
2019-04-04T05:56:09.313Z,16.85
2019-04-04T05:58:36.645Z,16.80
2019-04-04T06:01:05.458Z,17.75
2019-04-04T06:03:33.053Z,17.40
2019-04-04T06:06:01.354Z,19.67
2019-04-04T06:08:30.083Z,19.27
2019-04-04T06:10:57.639Z,19.42
2019-04-04T06:13:24.999Z,18.85
2019-04-04T06:15:53.651Z,20.55
2019-04-04T06:18:21.214Z,19.50
2019-04-04T06:20:49.000Z,18.35
2019-04-04T06:23:16.743Z,19.50
2019-04-04T06:25:43.997Z,16.77
2019-04-04T06:28:12.010Z,18.48
2019-04-04T06:30:43.376Z,17.67
2019-04-04T06:33:09.500Z,16.97
2019-04-04T06:35:39.691Z,16.25
2019-04-04T06:38:05.908Z,16.80
2019-04-04T06:40:33.040Z,18.73
2019-04-04T06:43:03.553Z,17.30
2019-04-04T06:45:31.477Z,14.87
2019-04-04T06:47:58.703Z,15.15
2019-04-04T06:50:26.181Z,14.38
2019-04-04T06:52:56.300Z,12.95
2019-04-04T06:55:22.754Z,13.13
2019-04-04T06:57:51.341Z,12.00
2019-04-04T07:00:19.296Z,13.75
2019-04-04T07:02:47.480Z,12.03
2019-04-04T07:05:14.921Z,12.10
2019-04-04T07:07:43.891Z,12.65
2019-04-04T07:10:11.524Z,12.63
2019-04-04T07:12:39.038Z,11.65
2019-04-04T07:15:06.900Z,11.65
2019-04-04T07:17:34.125Z,9.63
2019-04-04T07:20:01.281Z,10.88
2019-04-04T07:22:28.455Z,11.22
2019-04-04T07:24:55.593Z,11.75
2019-04-04T07:27:22.742Z,10.85
2019-04-04T07:29:50.635Z,11.53
2019-04-04T07:32:17.948Z,10.40
2019-04-04T07:34:45.935Z,10.72
2019-04-04T07:37:13.252Z,11.95
2019-04-04T07:39:40.567Z,11.10
2019-04-04T07:42:08.447Z,11.33
2019-04-04T07:44:35.566Z,10.60
2019-04-04T07:47:02.748Z,11.12
2019-04-04T07:49:30.058Z,11.00
2019-04-04T07:51:57.761Z,11.57
2019-04-04T07:54:24.815Z,11.50
2019-04-04T07:56:52.397Z,11.22
2019-04-04T07:59:19.544Z,10.20
2019-04-04T08:01:51.330Z,11.28
2019-04-04T08:04:15.900Z,12.75
2019-04-04T08:06:43.004Z,9.33
2019-04-04T08:09:10.056Z,10.30
2019-04-04T08:11:37.199Z,10.10
2019-04-04T08:14:04.874Z,10.00
2019-04-04T08:16:32.156Z,10.45
2019-04-04T08:18:59.576Z,8.80
2019-04-04T08:21:27.149Z,10.75
2019-04-04T08:23:54.494Z,10.03
2019-04-04T08:26:21.628Z,10.65
2019-04-04T08:28:48.771Z,10.38
2019-04-04T08:31:16.030Z,10.85
2019-04-04T08:33:43.535Z,10.53
2019-04-04T08:36:10.655Z,11.28
2019-04-04T08:38:38.141Z,11.57
2019-04-04T08:41:05.310Z,11.45
2019-04-04T08:43:32.918Z,10.48
2019-04-04T08:46:00.238Z,11.63
2019-04-04T08:48:27.694Z,10.55
2019-04-04T08:50:55.239Z,11.60
2019-04-04T08:53:22.400Z,10.88
2019-04-04T08:55:49.668Z,10.80
2019-04-04T08:58:17.285Z,9.70
2019-04-04T09:00:44.935Z,10.43
2019-04-04T09:03:12.075Z,10.10
2019-04-04T09:05:39.130Z,9.78
2019-04-04T09:08:06.363Z,10.13
2019-04-04T09:10:34.363Z,10.58
2019-04-04T09:13:01.491Z,11.28
2019-04-04T09:15:28.595Z,10.32
2019-04-04T09:17:56.140Z,11.60
2019-04-04T09:20:23.173Z,10.93
2019-04-04T09:22:50.402Z,10.80
2019-04-04T09:25:17.575Z,11.40
2019-04-04T09:27:44.702Z,10.50
2019-04-04T09:30:15.561Z,12.30
2019-04-04T09:32:42.752Z,11.75
2019-04-04T09:35:10.092Z,11.43
2019-04-04T09:37:37.269Z,11.10
2019-04-04T09:40:05.077Z,11.48
2019-04-04T09:42:32.276Z,12.65
2019-04-04T09:44:59.897Z,9.73
2019-04-04T09:47:27.403Z,11.55
2019-04-04T09:49:54.595Z,10.95
2019-04-04T09:52:21.956Z,11.78
2019-04-04T09:54:49.188Z,11.65
2019-04-04T09:57:16.358Z,11.18
2019-04-04T09:59:43.464Z,10.63
2019-04-04T10:02:11.136Z,11.22
2019-04-04T10:04:38.317Z,12.33
2019-04-04T10:07:05.777Z,12.35
2019-04-04T10:09:34.227Z,10.80
2019-04-04T10:12:02.073Z,11.90
2019-04-04T10:14:29.294Z,11.15
2019-04-04T10:16:56.660Z,11.40
2019-04-04T10:19:24.084Z,11.15
2019-04-04T10:21:51.196Z,11.83
2019-04-04T10:24:18.584Z,11.15
2019-04-04T10:26:46.414Z,12.28
2019-04-04T10:29:13.576Z,11.55
2019-04-04T10:31:40.719Z,12.07
2019-04-04T10:34:07.844Z,13.55
2019-04-04T10:36:34.982Z,11.28
2019-04-04T10:39:04.735Z,10.68
2019-04-04T10:41:31.876Z,11.08
2019-04-04T10:43:59.085Z,9.23
2019-04-04T10:46:26.426Z,10.25
2019-04-04T10:48:53.591Z,9.65
2019-04-04T10:51:21.101Z,10.08
2019-04-04T10:53:48.521Z,9.80
2019-04-04T10:56:15.546Z,10.43
2019-04-04T10:58:42.546Z,9.73
2019-04-04T11:01:09.644Z,9.68
2019-04-04T11:03:36.716Z,9.75
2019-04-04T11:06:03.741Z,9.15
2019-04-04T11:08:30.763Z,9.85
2019-04-04T11:10:59.010Z,10.48
2019-04-04T11:13:33.307Z,10.25
2019-04-04T11:15:55.274Z,10.20
2019-04-04T11:18:22.351Z,10.68
2019-04-04T11:20:49.540Z,9.80
2019-04-04T11:23:16.719Z,10.82
2019-04-04T11:25:44.001Z,12.05
2019-04-04T11:28:11.079Z,10.78
2019-04-04T11:30:38.315Z,10.93
2019-04-04T11:33:06.546Z,10.80
2019-04-04T11:35:34.055Z,9.93
2019-04-04T11:38:01.394Z,11.08
2019-04-04T11:40:29.545Z,11.22
2019-04-04T11:42:56.655Z,11.10
2019-04-04T11:45:24.309Z,11.30
2019-04-04T11:47:51.885Z,11.60
2019-04-04T11:50:19.019Z,11.75
2019-04-04T11:52:46.349Z,11.83
2019-04-04T11:55:13.459Z,11.45
2019-04-04T11:57:40.547Z,11.73
2019-04-04T12:00:11.243Z,10.98
2019-04-04T12:02:38.295Z,12.18
2019-04-04T12:05:06.025Z,13.32
2019-04-04T12:07:33.133Z,11.83
2019-04-04T12:10:07.423Z,13.45
2019-04-04T12:12:29.634Z,13.08
2019-04-04T12:14:56.834Z,12.37
2019-04-04T12:17:24.406Z,11.75
2019-04-04T12:19:51.833Z,12.60
2019-04-04T12:22:19.084Z,12.30
2019-04-04T12:24:46.079Z,13.38
2019-04-04T12:27:13.133Z,11.83
2019-04-04T12:29:40.240Z,13.00
2019-04-04T12:32:07.551Z,13.22
2019-04-04T12:34:34.578Z,12.00
2019-04-04T12:37:01.559Z,12.88
2019-04-04T12:39:28.847Z,12.75
2019-04-04T12:41:55.838Z,12.68
2019-04-04T12:44:22.870Z,13.50
2019-04-04T12:46:50.297Z,13.25
2019-04-04T12:49:17.691Z,13.78
2019-04-04T12:51:45.107Z,16.12
2019-04-04T12:54:12.408Z,12.70
2019-04-04T12:56:39.452Z,13.75
2019-04-04T12:59:06.805Z,13.85
2019-04-04T13:01:34.261Z,14.23
2019-04-04T13:04:01.463Z,12.73
2019-04-04T13:06:28.541Z,12.40
2019-04-04T13:08:55.510Z,14.28
2019-04-04T13:11:22.566Z,12.82
2019-04-04T13:13:49.582Z,13.48
2019-04-04T13:16:16.811Z,12.45
2019-04-04T13:18:44.886Z,12.78
2019-04-04T13:21:11.951Z,12.25
2019-04-04T13:23:38.914Z,13.80
2019-04-04T13:26:06.000Z,13.35
2019-04-04T13:28:33.077Z,14.03
2019-04-04T13:31:00.207Z,13.65
2019-04-04T13:33:27.478Z,13.90
2019-04-04T13:35:54.936Z,13.35
2019-04-04T13:38:22.278Z,15.90
2019-04-04T13:40:50.321Z,13.48
2019-04-04T13:43:17.626Z,16.62
2019-04-04T13:45:45.697Z,16.02
2019-04-04T13:48:13.346Z,15.85
2019-04-04T13:50:40.462Z,15.00
2019-04-04T13:53:07.431Z,14.53
2019-04-04T13:55:34.648Z,14.85
2019-04-04T13:58:01.799Z,14.85
2019-04-04T14:00:28.844Z,15.58
2019-04-04T14:02:55.822Z,17.23
2019-04-04T14:05:23.143Z,15.23
2019-04-04T14:08:04.371Z,15.30
2019-04-04T14:10:31.851Z,13.60
2019-04-04T14:13:00.379Z,13.25
2019-04-04T14:15:27.412Z,13.35
2019-04-04T14:17:54.416Z,13.45
2019-04-04T14:20:21.389Z,14.55
2019-04-04T14:22:51.085Z,13.43
2019-04-04T14:25:17.802Z,12.50
2019-04-04T14:27:44.920Z,12.93
2019-04-04T14:30:13.814Z,13.03
2019-04-04T14:32:40.931Z,13.10
2019-04-04T14:35:08.357Z,12.25
2019-04-04T14:37:35.499Z,11.90
2019-04-04T14:40:02.731Z,12.33
2019-04-04T14:42:29.690Z,13.90
2019-04-04T14:44:56.686Z,13.68
2019-04-04T14:47:23.731Z,13.90
2019-04-04T14:49:50.741Z,13.58
2019-04-04T14:52:19.858Z,14.05
2019-04-04T14:54:46.923Z,13.53
2019-04-04T14:57:14.252Z,14.05
2019-04-04T14:59:41.667Z,13.50
2019-04-04T15:02:08.785Z,14.65
2019-04-04T15:04:35.906Z,14.80
2019-04-04T15:07:03.099Z,14.90
2019-04-04T15:09:30.346Z,14.00
2019-04-04T15:11:57.623Z,16.00
2019-04-04T15:14:31.775Z,15.28
2019-04-04T15:16:59.948Z,17.07
2019-04-04T15:19:26.997Z,15.32
2019-04-04T15:21:54.424Z,16.32
2019-04-04T15:24:21.751Z,18.70
2019-04-04T15:26:49.158Z,18.15
2019-04-04T15:29:16.241Z,17.77
2019-04-04T15:31:43.650Z,20.40
2019-04-04T15:34:10.678Z,19.05
2019-04-04T15:36:37.993Z,17.70
2019-04-04T15:39:05.823Z,17.50
2019-04-04T15:41:37.286Z,17.07
2019-04-04T15:44:03.178Z,18.42
2019-04-04T15:46:30.516Z,17.15
2019-04-04T15:48:57.881Z,16.60
2019-04-04T15:51:25.155Z,17.27
2019-04-04T15:53:52.220Z,16.17
2019-04-04T15:56:19.289Z,16.40
2019-04-04T15:58:49.020Z,16.32
2019-04-04T16:01:16.151Z,18.95
2019-04-04T16:03:43.298Z,16.60
2019-04-04T16:06:10.508Z,16.90
2019-04-04T16:08:37.480Z,16.75
2019-04-04T16:11:04.906Z,16.85
2019-04-04T16:13:32.088Z,17.57
2019-04-04T16:15:59.185Z,16.62
2019-04-04T16:18:26.465Z,18.30
2019-04-04T16:20:54.031Z,18.15
2019-04-04T16:23:21.318Z,17.25
2019-04-04T16:25:48.726Z,18.00
2019-04-04T16:28:16.155Z,18.52
2019-04-04T16:30:43.307Z,17.15
2019-04-04T16:33:10.436Z,16.70
2019-04-04T16:35:37.527Z,16.82
2019-04-04T16:38:04.980Z,16.32
2019-04-04T16:40:32.298Z,17.90
2019-04-04T16:42:59.635Z,15.83
2019-04-04T16:45:26.977Z,16.97
2019-04-04T16:47:54.076Z,12.80
2019-04-04T16:50:21.066Z,11.85
2019-04-04T16:52:48.178Z,11.83
2019-04-04T16:55:15.450Z,10.93
2019-04-04T16:57:43.417Z,11.08
2019-04-04T17:00:11.974Z,10.18
2019-04-04T17:02:39.370Z,12.37
2019-04-04T17:05:06.751Z,11.12
2019-04-04T17:07:34.088Z,11.28
2019-04-04T17:10:01.233Z,11.33
2019-04-04T17:12:28.908Z,10.50
2019-04-04T17:14:55.930Z,10.10
2019-04-04T17:17:22.934Z,9.33
2019-04-04T17:19:49.928Z,10.10
2019-04-04T17:22:16.964Z,9.53
2019-04-04T17:24:44.024Z,9.78
2019-04-04T17:27:11.514Z,10.75
2019-04-04T17:29:38.888Z,10.00
2019-04-04T17:32:06.397Z,10.60
2019-04-04T17:34:34.027Z,9.58
2019-04-04T17:37:01.451Z,9.95
2019-04-04T17:39:29.998Z,10.55
2019-04-04T17:41:57.036Z,8.90
2019-04-04T17:44:24.178Z,10.28
2019-04-04T17:46:51.700Z,10.10
2019-04-04T17:49:19.208Z,9.53
2019-04-04T17:51:46.921Z,10.93
2019-04-04T17:54:14.324Z,9.58
2019-04-04T17:56:41.467Z,9.70
2019-04-04T17:59:09.228Z,9.35
2019-04-04T18:01:36.479Z,9.15
2019-04-04T18:04:03.702Z,9.30
2019-04-04T18:06:30.736Z,9.18
2019-04-04T18:08:57.834Z,8.80
2019-04-04T18:11:25.033Z,10.30
2019-04-04T18:13:52.181Z,9.50
2019-04-04T18:16:19.212Z,9.95
2019-04-04T18:18:46.608Z,9.73
2019-04-04T18:21:13.687Z,8.80
2019-04-04T18:23:40.818Z,9.83
2019-04-04T18:26:09.020Z,9.40
2019-04-04T18:28:36.147Z,9.50
2019-04-04T18:31:03.285Z,10.38
2019-04-04T18:33:30.798Z,9.55
2019-04-04T18:35:57.982Z,10.10
2019-04-04T18:38:25.164Z,10.70
2019-04-04T18:40:52.383Z,9.03
2019-04-04T18:43:19.527Z,9.78
2019-04-04T18:45:46.523Z,10.55
2019-04-04T18:48:13.581Z,10.55
2019-04-04T18:50:43.309Z,10.50
2019-04-04T18:53:10.408Z,10.68
2019-04-04T18:55:37.442Z,10.65
2019-04-04T18:58:04.433Z,10.65
2019-04-04T19:00:31.677Z,10.32
2019-04-04T19:02:58.963Z,10.35
2019-04-04T19:05:26.166Z,10.55
2019-04-04T19:07:53.363Z,11.12
2019-04-04T19:10:20.772Z,10.55
2019-04-04T19:12:47.892Z,10.43
2019-04-04T19:15:16.189Z,10.48
2019-04-04T19:17:44.148Z,11.18
2019-04-04T19:20:14.608Z,11.12
2019-04-04T19:22:41.982Z,11.65
2019-04-04T19:25:09.406Z,13.25
2019-04-04T19:27:36.706Z,11.88
2019-04-04T19:30:05.235Z,12.55
2019-04-04T19:32:32.944Z,12.43
2019-04-04T19:35:00.145Z,12.40
2019-04-04T19:37:27.184Z,13.83
2019-04-04T19:39:54.563Z,13.25
2019-04-04T19:42:22.943Z,13.65
2019-04-04T19:44:53.665Z,13.10
2019-04-04T19:47:19.072Z,14.23
2019-04-04T19:49:46.519Z,13.45
2019-04-04T19:52:14.073Z,14.35
2019-04-04T19:54:41.148Z,14.18
2019-04-04T19:57:08.487Z,14.35
2019-04-04T19:59:35.499Z,13.80
2019-04-04T20:02:02.884Z,15.40
2019-04-04T20:04:30.152Z,14.68
2019-04-04T20:06:57.799Z,14.58
2019-04-04T20:09:25.177Z,14.90
2019-04-04T20:11:52.271Z,14.60
2019-04-04T20:14:19.695Z,13.98
2019-04-04T20:16:46.816Z,14.23
2019-04-04T20:19:15.360Z,13.50
2019-04-04T20:21:42.806Z,14.05
2019-04-04T20:24:09.975Z,14.55
2019-04-04T20:26:37.203Z,15.30
2019-04-04T20:29:04.460Z,14.70
2019-04-04T20:31:31.547Z,14.33
2019-04-04T20:34:02.022Z,15.60
2019-04-04T20:36:28.444Z,16.20
2019-04-04T20:38:55.537Z,15.23
2019-04-04T20:41:22.935Z,15.55
2019-04-04T20:43:50.557Z,15.72
2019-04-04T20:46:17.997Z,16.77
2019-04-04T20:48:46.159Z,16.48
2019-04-04T20:51:13.283Z,16.95
2019-04-04T20:53:40.575Z,16.73
2019-04-04T20:56:07.919Z,16.73
2019-04-04T20:58:35.078Z,17.45
2019-04-04T21:01:02.707Z,17.45
2019-04-04T21:03:30.113Z,17.12
2019-04-04T21:05:58.239Z,18.50
2019-04-04T21:08:25.282Z,18.20
2019-04-04T21:10:53.728Z,19.52
2019-04-04T21:13:20.904Z,18.55
2019-04-04T21:15:47.907Z,19.98
2019-04-04T21:18:14.993Z,19.67
2019-04-04T21:20:42.175Z,20.00
2019-04-04T21:23:09.329Z,19.17
2019-04-04T21:25:37.035Z,20.15
2019-04-04T21:28:04.392Z,19.90
2019-04-04T21:30:31.491Z,19.95
2019-04-04T21:32:58.511Z,21.20
2019-04-04T21:35:25.992Z,20.82
2019-04-04T21:37:53.011Z,21.15
2019-04-04T21:40:20.060Z,19.00
2019-04-04T21:42:48.307Z,22.62
2019-04-04T21:45:15.641Z,21.23
2019-04-04T21:47:42.775Z,24.07
2019-04-04T21:50:10.484Z,21.02
2019-04-04T21:52:37.479Z,21.52
2019-04-04T21:55:05.064Z,22.65
2019-04-04T21:57:32.184Z,21.52
2019-04-04T21:59:59.228Z,22.70
2019-04-04T22:02:26.995Z,21.25
2019-04-04T22:04:54.413Z,21.07
2019-04-04T22:07:21.575Z,20.52
2019-04-04T22:09:49.133Z,20.32
2019-04-04T22:12:16.309Z,21.17
2019-04-04T22:14:43.380Z,20.95
2019-04-04T22:17:11.496Z,19.95
2019-04-04T22:19:39.941Z,20.40
2019-04-04T22:22:08.710Z,18.60
2019-04-04T22:24:36.014Z,18.32
2019-04-04T22:27:06.435Z,19.07
2019-04-04T22:29:33.591Z,19.20
2019-04-04T22:32:00.729Z,18.80
2019-04-04T22:34:27.805Z,19.77
2019-04-04T22:36:55.448Z,20.90
2019-04-04T22:39:22.560Z,20.15
2019-04-04T22:41:50.461Z,22.05
2019-04-04T22:44:17.948Z,21.12
2019-04-04T22:46:46.365Z,21.15
2019-04-04T22:49:14.066Z,21.60
2019-04-04T22:51:41.192Z,22.27
2019-04-04T22:54:08.671Z,23.30
2019-04-04T22:56:35.753Z,22.90
2019-04-04T22:59:03.112Z,23.80
2019-04-04T23:01:30.269Z,25.02
2019-04-04T23:03:57.399Z,26.35
2019-04-04T23:06:24.606Z,25.77
2019-04-04T23:08:52.094Z,28.42
2019-04-04T23:11:19.162Z,26.52
2019-04-04T23:13:46.394Z,28.80
2019-04-04T23:16:14.532Z,29.30
2019-04-04T23:18:41.668Z,28.67
2019-04-04T23:21:09.234Z,30.32
2019-04-04T23:23:36.595Z,30.20
2019-04-04T23:26:03.854Z,30.57
2019-04-04T23:28:30.926Z,31.48
2019-04-04T23:30:58.174Z,32.08
2019-04-04T23:33:25.287Z,30.72
2019-04-04T23:35:52.357Z,32.13
2019-04-04T23:38:19.514Z,30.45
2019-04-04T23:40:46.988Z,34.18
2019-04-04T23:43:14.124Z,33.90
2019-04-04T23:45:41.381Z,35.55
2019-04-04T23:48:08.729Z,33.73
2019-04-04T23:50:36.244Z,35.68
2019-04-04T23:53:03.492Z,35.30
2019-04-04T23:55:32.059Z,36.70
2019-04-04T23:57:59.187Z,35.90
